Time;durP1;ratioP1;P1;durP2;ratioP2;P2;SDS_P1;SDS_P2;PMS_P1;PMS_P2;Temp;Humidity;BMP_temperature;BMP_pressure;BME280_temperature;BME280_humidity;BME280_pressure;Samples;Min_cycle;Max_cycle;Signal;HPM_P1;HPM_P2
2021/04/07 00:01:41;;;;;;;5.95;3.00;;;0.30;99.90;;;;;;4178446;28;20459;-74
2021/04/07 00:03:42;;;;;;;9.32;3.03;;;0.20;99.90;;;;;;4194660;28;20125;-75
2021/04/07 00:05:44;;;;;;;4.32;2.75;;;0.20;99.90;;;;;;4195666;28;20040;-75
2021/04/07 00:07:45;;;;;;;11.88;3.03;;;0.30;99.90;;;;;;4178101;28;20091;-75
2021/04/07 00:09:45;;;;;;;11.68;3.47;;;0.40;99.90;;;;;;4177948;28;20025;-74
2021/04/07 00:11:47;;;;;;;9.75;3.30;;;0.50;99.90;;;;;;4210990;28;20522;-75
2021/04/07 00:13:47;;;;;;;10.57;2.75;;;0.50;99.90;;;;;;4194256;28;20029;-75
2021/04/07 00:15:48;;;;;;;10.73;3.85;;;0.40;99.90;;;;;;4194649;28;20035;-75
2021/04/07 00:17:50;;;;;;;7.22;3.05;;;0.30;99.90;;;;;;4196188;28;20120;-75
2021/04/07 00:19:51;;;;;;;9.98;4.00;;;0.30;99.90;;;;;;4179674;28;20049;-75
2021/04/07 00:21:51;;;;;;;12.15;4.93;;;0.40;99.90;;;;;;4196118;28;20071;-75
2021/04/07 00:23:52;;;;;;;9.50;3.22;;;0.50;99.90;;;;;;4195294;28;20106;-75
2021/04/07 00:25:53;;;;;;;16.10;3.50;;;0.50;99.90;;;;;;4195640;28;20144;-75
2021/04/07 00:28:04;;;;;;;9.75;4.15;;;0.50;99.90;;;;;;4179792;28;20487;-75
2021/04/07 00:30:08;;;;;;;6.18;2.95;;;0.50;99.90;;;;;;4171066;28;20057;-75
2021/04/07 00:32:09;;;;;;;10.77;3.85;;;0.50;99.90;;;;;;4195728;28;20407;-75
2021/04/07 00:34:10;;;;;;;11.52;4.47;;;0.50;99.90;;;;;;4179250;28;20029;-75
2021/04/07 00:36:11;;;;;;;7.13;3.65;;;0.50;99.90;;;;;;4179312;28;20563;-75
2021/04/07 00:38:12;;;;;;;9.52;3.05;;;0.50;99.90;;;;;;4195566;28;20122;-75
2021/04/07 00:40:15;;;;;;;13.88;3.47;;;0.50;99.90;;;;;;4163042;28;20061;-75
2021/04/07 00:42:16;;;;;;;8.80;2.80;;;0.50;99.90;;;;;;4212429;28;20044;-75
2021/04/07 00:44:17;;;;;;;8.95;3.10;;;0.50;99.90;;;;;;4179373;28;20463;-75
2021/04/07 00:46:18;;;;;;;9.25;3.00;;;0.40;99.90;;;;;;4195319;28;20107;-75
2021/04/07 00:48:20;;;;;;;9.77;3.00;;;0.40;99.90;;;;;;4195834;28;20032;-75
2021/04/07 00:50:24;;;;;;;9.50;3.30;;;0.30;99.90;;;;;;4195726;28;20029;-75
2021/04/07 00:52:25;;;;;;;11.00;4.57;;;0.30;99.90;;;;;;4178934;28;20388;-75
2021/04/07 00:54:26;;;;;;;17.23;3.55;;;0.30;99.90;;;;;;4195801;28;20043;-76
2021/04/07 00:56:27;;;;;;;11.38;4.22;;;0.30;99.90;;;;;;4178966;28;20111;-75
2021/04/07 00:58:28;;;;;;;12.82;4.45;;;0.40;99.90;;;;;;4178285;28;20036;-75
2021/04/07 01:00:29;;;;;;;9.65;5.13;;;0.40;99.90;;;;;;4178476;28;20452;-75
2021/04/07 01:02:30;;;;;;;7.65;3.38;;;0.50;99.90;;;;;;4179005;28;20057;-75
2021/04/07 01:04:31;;;;;;;11.88;3.28;;;0.60;99.90;;;;;;4196628;28;20103;-75
2021/04/07 01:06:35;;;;;;;14.52;3.67;;;0.70;99.90;;;;;;4196769;28;20534;-75
2021/04/07 01:08:36;;;;;;;9.00;3.53;;;0.80;99.90;;;;;;4178737;28;20124;-76
2021/04/07 01:10:37;;;;;;;8.68;2.42;;;0.80;99.90;;;;;;4178996;28;20467;-76
2021/04/07 01:12:39;;;;;;;10.68;3.30;;;0.90;99.90;;;;;;4196402;28;20052;-76
2021/04/07 01:14:40;;;;;;;12.00;3.33;;;0.80;99.90;;;;;;4179047;28;20588;-76
2021/04/07 01:16:41;;;;;;;19.35;4.88;;;0.80;99.90;;;;;;4195136;28;20032;-76
2021/04/07 01:18:42;;;;;;;19.10;3.88;;;0.80;99.90;;;;;;4178549;28;20545;-76
2021/04/07 01:20:43;;;;;;;6.65;2.95;;;0.70;99.90;;;;;;4195236;28;20070;-77
2021/04/07 01:22:52;;;;;;;13.93;3.42;;;0.60;99.90;;;;;;4178732;28;20044;-77
2021/04/07 01:24:53;;;;;;;15.45;3.45;;;0.70;99.90;;;;;;4178442;28;20122;-77
2021/04/07 01:26:54;;;;;;;16.67;3.58;;;0.60;99.90;;;;;;4177576;28;20186;-77
2021/04/07 01:28:54;;;;;;;17.10;3.88;;;0.60;99.90;;;;;;4178748;28;20033;-77
2021/04/07 01:30:55;;;;;;;13.32;3.40;;;0.50;99.90;;;;;;4178756;28;20542;-77
2021/04/07 01:32:56;;;;;;;14.70;4.60;;;0.50;99.90;;;;;;4186769;28;20043;-77
2021/04/07 01:34:57;;;;;;;14.43;3.47;;;0.50;99.90;;;;;;4178474;28;20123;-77
2021/04/07 01:37:00;;;;;;;7.65;3.22;;;0.50;99.90;;;;;;4191975;28;20043;-77
2021/04/07 01:39:02;;;;;;;8.70;3.97;;;0.50;99.90;;;;;;4178307;28;20093;-79
2021/04/07 01:41:05;;;;;;;13.73;3.15;;;0.60;99.90;;;;;;4194851;28;20028;-78
2021/04/07 01:43:06;;;;;;;6.32;3.03;;;0.60;99.90;;;;;;4194979;28;20043;-77
2021/04/07 01:45:07;;;;;;;8.48;2.97;;;0.60;99.90;;;;;;4178473;28;20128;-78
2021/04/07 01:47:09;;;;;;;9.07;3.13;;;0.70;99.90;;;;;;4195054;28;20040;-77
2021/04/07 01:49:12;;;;;;;15.98;3.65;;;0.70;99.90;;;;;;4178517;28;20040;-78
2021/04/07 01:51:13;;;;;;;11.55;4.05;;;0.70;99.90;;;;;;4178130;28;20392;-77
2021/04/07 01:53:17;;;;;;;5.95;3.17;;;0.70;99.90;;;;;;4178170;28;20029;-77
2021/04/07 01:55:17;;;;;;;8.20;2.78;;;0.70;99.90;;;;;;4178476;28;20044;-77
2021/04/07 01:57:18;;;;;;;12.18;2.92;;;0.70;99.90;;;;;;4161529;28;20400;-77
2021/04/07 01:59:22;;;;;;;10.23;3.75;;;0.80;99.90;;;;;;4194795;28;20033;-77
2021/04/07 02:01:23;;;;;;;8.45;3.85;;;0.70;99.90;;;;;;4194383;28;20848;-77
2021/04/07 02:03:24;;;;;;;4.78;3.00;;;0.80;99.90;;;;;;4178086;28;20029;-77
2021/04/07 02:05:25;;;;;;;5.32;3.30;;;0.80;99.90;;;;;;4194584;28;20129;-77
2021/04/07 02:07:26;;;;;;;8.63;3.30;;;0.80;99.90;;;;;;4178180;28;20484;-77
2021/04/07 02:09:27;;;;;;;8.77;3.40;;;0.80;99.90;;;;;;4194889;28;20036;-76
2021/04/07 02:11:28;;;;;;;10.10;5.30;;;0.70;99.90;;;;;;4178276;28;20040;-77
2021/04/07 02:13:28;;;;;;;15.40;7.32;;;0.70;99.90;;;;;;4177792;28;20419;-76
2021/04/07 02:15:29;;;;;;;5.75;3.78;;;0.60;99.90;;;;;;4210424;28;20039;-76
2021/04/07 02:17:30;;;;;;;9.43;3.92;;;0.70;99.90;;;;;;4192478;28;20103;-76
2021/04/07 02:19:34;;;;;;;12.90;4.05;;;0.70;99.90;;;;;;4195044;28;20035;-75
2021/04/07 02:21:36;;;;;;;10.68;4.70;;;0.60;99.90;;;;;;4177212;28;20120;-76
2021/04/07 02:23:38;;;;;;;9.82;4.93;;;0.60;99.90;;;;;;4167814;28;20041;-76
2021/04/07 02:25:39;;;;;;;8.82;4.43;;;0.50;99.90;;;;;;4160787;28;20037;-76
2021/04/07 02:27:40;;;;;;;11.10;5.03;;;0.50;99.90;;;;;;4195776;28;20028;-76
2021/04/07 02:29:44;;;;;;;15.07;4.72;;;0.50;99.90;;;;;;4190559;28;20079;-76
2021/04/07 02:31:45;;;;;;;8.80;4.97;;;0.50;99.90;;;;;;4180445;28;20041;-77
2021/04/07 02:33:46;;;;;;;12.35;5.00;;;0.50;99.90;;;;;;4193444;28;20059;-76
2021/04/07 02:35:47;;;;;;;6.50;4.72;;;0.50;99.90;;;;;;4177562;28;20549;-76
2021/04/07 02:37:48;;;;;;;11.13;6.65;;;0.60;99.90;;;;;;4177458;28;20040;-76
2021/04/07 02:39:49;;;;;;;12.48;5.82;;;0.60;99.90;;;;;;4177209;28;20029;-76
2021/04/07 02:41:51;;;;;;;17.23;6.07;;;0.60;99.90;;;;;;4194992;28;20041;-76
2021/04/07 02:43:51;;;;;;;9.60;5.43;;;0.60;99.90;;;;;;4173531;28;20062;-76
2021/04/07 02:45:52;;;;;;;10.95;5.10;;;0.70;99.90;;;;;;4210534;28;20036;-77
2021/04/07 02:47:53;;;;;;;10.55;3.92;;;0.70;99.90;;;;;;4195108;28;20570;-77
2021/04/07 02:49:54;;;;;;;7.80;3.40;;;0.70;99.90;;;;;;4177320;28;20492;-77
2021/04/07 02:51:55;;;;;;;12.20;4.20;;;0.80;99.90;;;;;;4210706;28;20078;-77
2021/04/07 02:53:56;;;;;;;10.13;3.92;;;0.80;99.90;;;;;;4177161;28;20400;-78
2021/04/07 02:55:57;;;;;;;6.18;3.63;;;0.80;99.90;;;;;;4197958;28;20024;-77
2021/04/07 02:57:58;;;;;;;17.95;4.32;;;0.80;99.90;;;;;;4177083;28;20025;-78
2021/04/07 02:59:59;;;;;;;17.40;4.53;;;0.70;99.90;;;;;;4194000;28;20033;-79
2021/04/07 03:02:00;;;;;;;14.00;4.63;;;0.70;99.90;;;;;;4195635;28;20498;-79
2021/04/07 03:04:01;;;;;;;14.95;4.45;;;0.60;99.90;;;;;;4194163;28;20029;-77
2021/04/07 03:06:02;;;;;;;17.58;4.03;;;0.50;99.90;;;;;;4185270;28;20033;-79
2021/04/07 03:08:03;;;;;;;12.30;4.13;;;0.40;99.90;;;;;;4193413;28;20025;-78
2021/04/07 03:10:05;;;;;;;13.90;5.57;;;0.40;99.90;;;;;;4193410;28;20547;-78
2021/04/07 03:12:06;;;;;;;14.02;4.38;;;0.40;99.90;;;;;;4177046;28;20387;-79
2021/04/07 03:14:07;;;;;;;9.18;4.32;;;0.40;99.90;;;;;;4177063;28;20104;-79
2021/04/07 03:16:08;;;;;;;12.25;4.20;;;0.40;99.90;;;;;;4194617;28;20040;-79
2021/04/07 03:18:09;;;;;;;17.95;4.43;;;0.50;99.90;;;;;;4177856;28;20033;-80
2021/04/07 03:20:11;;;;;;;7.78;3.47;;;0.50;99.90;;;;;;4186082;28;20065;-80
2021/04/07 03:22:12;;;;;;;5.30;3.97;;;0.50;99.90;;;;;;4181128;28;20468;-81
2021/04/07 03:24:12;;;;;;;13.77;4.20;;;0.50;99.90;;;;;;4175197;28;20132;-82
2021/04/07 03:26:13;;;;;;;6.22;3.13;;;0.50;99.90;;;;;;4163706;28;20061;-82
2021/04/07 03:28:14;;;;;;;8.52;3.85;;;0.50;99.90;;;;;;4192644;28;20138;-82
2021/04/07 03:30:17;;;;;;;14.48;4.70;;;0.60;99.90;;;;;;4162601;28;20545;-82
2021/04/07 03:32:19;;;;;;;17.35;4.13;;;0.60;99.90;;;;;;4165636;28;20153;-82
2021/04/07 03:34:20;;;;;;;10.05;3.80;;;0.50;99.90;;;;;;4174718;28;20396;-82
2021/04/07 03:36:21;;;;;;;13.73;4.20;;;0.60;99.90;;;;;;4176755;28;20037;-83
2021/04/07 03:38:22;;;;;;;7.38;3.38;;;0.60;99.90;;;;;;4177985;28;20168;-83
2021/04/07 03:40:24;;;;;;;11.70;3.40;;;0.60;99.90;;;;;;4177489;28;20037;-83
2021/04/07 03:42:24;;;;;;;4.57;2.85;;;0.60;99.90;;;;;;4194453;28;20028;-85
2021/04/07 03:44:26;;;;;;;7.68;3.00;;;0.70;99.90;;;;;;4211370;28;20036;-84
2021/04/07 03:46:27;;;;;;;13.18;3.05;;;0.70;99.90;;;;;;4177252;28;20121;-84
2021/04/07 03:48:30;;;;;;;8.52;3.15;;;0.70;99.90;;;;;;4177534;28;20040;-84
2021/04/07 03:50:31;;;;;;;11.77;3.08;;;0.70;99.90;;;;;;4196528;28;20442;-83
2021/04/07 03:52:32;;;;;;;10.77;3.67;;;0.80;99.90;;;;;;4177468;28;20040;-85
2021/04/07 03:54:33;;;;;;;13.43;3.35;;;0.70;99.90;;;;;;4213308;28;20074;-85
2021/04/07 03:56:34;;;;;;;20.25;3.85;;;0.70;99.90;;;;;;4197242;28;20059;-86
2021/04/07 03:58:34;;;;;;;12.50;2.90;;;0.70;99.90;;;;;;4194461;28;20123;-84
2021/04/07 04:00:35;;;;;;;8.07;3.50;;;0.60;99.90;;;;;;4197413;28;20037;-86
2021/04/07 04:02:36;;;;;;;11.75;5.68;;;0.60;99.90;;;;;;4180830;28;20046;-88
2021/04/07 04:04:37;;;;;;;12.18;3.78;;;0.60;99.90;;;;;;4211612;28;20036;-88
2021/04/07 04:06:40;;;;;;;8.50;3.15;;;0.50;99.90;;;;;;4181128;28;20037;-86
2021/04/07 04:08:41;;;;;;;10.48;3.85;;;0.50;99.90;;;;;;4198088;28;20049;-86
2021/04/07 04:10:42;;;;;;;9.02;3.75;;;0.60;99.90;;;;;;4180568;28;20041;-85
2021/04/07 04:12:43;;;;;;;5.55;2.80;;;0.50;99.90;;;;;;4177234;28;20415;-84
2021/04/07 04:14:43;;;;;;;5.88;3.13;;;0.60;99.90;;;;;;4213228;28;20453;-83
2021/04/07 04:16:44;;;;;;;9.00;3.22;;;0.60;99.90;;;;;;4196132;28;20040;-83
2021/04/07 04:18:45;;;;;;;7.28;3.17;;;0.70;99.90;;;;;;4179691;28;20025;-83
2021/04/07 04:20:46;;;;;;;6.13;2.85;;;0.70;99.90;;;;;;4177820;28;20120;-82
2021/04/07 04:22:48;;;;;;;8.18;2.63;;;0.70;99.90;;;;;;4179844;28;20033;-82
2021/04/07 04:24:49;;;;;;;7.18;2.55;;;0.80;99.90;;;;;;4195840;28;20067;-81
2021/04/07 04:26:50;;;;;;;8.15;3.08;;;0.80;99.90;;;;;;4193061;28;20041;-81
2021/04/07 04:28:50;;;;;;;8.18;2.90;;;0.70;99.90;;;;;;4196383;28;20028;-81
2021/04/07 04:30:51;;;;;;;5.10;2.85;;;0.80;99.90;;;;;;4177980;28;20033;-81
2021/04/07 04:32:52;;;;;;;3.22;3.03;;;0.70;99.90;;;;;;4194850;28;20032;-80
2021/04/07 04:34:53;;;;;;;12.35;3.22;;;0.80;99.90;;;;;;4179490;28;20371;-80
2021/04/07 04:36:53;;;;;;;6.32;2.20;;;0.80;99.90;;;;;;4189575;28;20462;-81
2021/04/07 04:38:54;;;;;;;8.63;3.28;;;0.80;99.90;;;;;;4196063;28;20032;-81
2021/04/07 04:40:55;;;;;;;5.45;2.65;;;0.80;99.90;;;;;;4197294;28;20082;-82
2021/04/07 04:42:56;;;;;;;5.05;2.63;;;0.80;99.90;;;;;;4179233;28;20037;-82
2021/04/07 04:44:57;;;;;;;9.52;2.70;;;0.70;99.90;;;;;;4179114;28;20033;-82
2021/04/07 04:46:58;;;;;;;5.60;2.60;;;0.70;99.90;;;;;;4195857;28;20037;-83
2021/04/07 04:48:59;;;;;;;4.18;2.58;;;0.60;99.90;;;;;;4179581;28;20424;-82
2021/04/07 04:51:00;;;;;;;7.57;2.45;;;0.60;99.90;;;;;;4178796;28;20041;-83
2021/04/07 04:53:00;;;;;;;7.93;2.35;;;0.60;99.90;;;;;;4178055;28;20033;-82
2021/04/07 04:55:03;;;;;;;2.85;2.33;;;0.60;99.90;;;;;;4192312;28;20029;-83
2021/04/07 04:57:04;;;;;;;4.68;2.70;;;0.60;99.90;;;;;;4178799;28;20037;-82
2021/04/07 04:59:05;;;;;;;5.28;3.95;;;0.60;99.90;;;;;;4178961;28;20035;-83
2021/04/07 05:01:06;;;;;;;4.03;2.50;;;0.50;99.90;;;;;;4192428;28;20499;-83
2021/04/07 05:03:06;;;;;;;3.67;2.10;;;0.60;99.90;;;;;;4192963;28;20064;-81
2021/04/07 05:05:08;;;;;;;3.28;2.70;;;0.60;99.90;;;;;;4194261;28;20044;-81
2021/04/07 05:07:09;;;;;;;3.80;2.47;;;0.60;99.90;;;;;;4178446;28;20147;-81
2021/04/07 05:09:09;;;;;;;2.95;2.15;;;0.70;99.90;;;;;;4178564;28;20040;-82
2021/04/07 05:11:10;;;;;;;3.03;2.25;;;0.70;99.90;;;;;;4194683;28;20428;-82
2021/04/07 05:13:11;;;;;;;2.53;2.20;;;0.70;99.90;;;;;;4195533;28;20029;-82
2021/04/07 05:15:13;;;;;;;6.13;3.17;;;0.80;99.90;;;;;;4178874;28;20041;-80
2021/04/07 05:17:13;;;;;;;4.30;2.53;;;0.80;99.90;;;;;;4178736;28;20037;-81
2021/04/07 05:19:14;;;;;;;5.32;3.30;;;0.70;99.90;;;;;;4195133;28;20412;-83
2021/04/07 05:21:15;;;;;;;5.10;2.90;;;0.70;99.90;;;;;;4178803;28;20103;-82
2021/04/07 05:23:15;;;;;;;2.65;2.42;;;0.70;99.90;;;;;;4212038;28;20040;-82
2021/04/07 05:25:16;;;;;;;3.65;2.08;;;0.60;99.90;;;;;;4194778;28;20140;-81
2021/04/07 05:27:17;;;;;;;2.50;2.30;;;0.70;99.90;;;;;;4176592;28;20105;-83
2021/04/07 05:29:18;;;;;;;2.55;2.22;;;0.70;99.90;;;;;;4169957;28;20037;-82
2021/04/07 05:31:18;;;;;;;6.60;2.80;;;0.60;99.90;;;;;;4179026;28;20097;-84
2021/04/07 05:33:24;;;;;;;2.85;2.40;;;0.70;99.90;;;;;;4178551;28;20454;-83
2021/04/07 05:35:25;;;;;;;4.22;3.67;;;0.70;99.90;;;;;;4195496;28;20044;-84
2021/04/07 05:37:26;;;;;;;3.90;2.58;;;0.60;99.90;;;;;;4178883;28;20033;-83
2021/04/07 05:39:27;;;;;;;2.45;2.35;;;0.60;99.90;;;;;;4178993;28;20080;-81
2021/04/07 05:41:27;;;;;;;3.67;3.35;;;0.60;99.90;;;;;;4178445;28;20029;-83
2021/04/07 05:43:30;;;;;;;2.97;2.72;;;0.70;99.90;;;;;;4178624;28;20191;-84
2021/04/07 05:45:31;;;;;;;4.65;3.38;;;0.80;99.90;;;;;;4195499;28;20063;-82
2021/04/07 05:47:32;;;;;;;3.00;2.70;;;0.80;99.90;;;;;;4178293;28;20120;-79
2021/04/07 05:49:33;;;;;;;3.95;3.55;;;0.80;99.90;;;;;;4194912;28;20103;-79
2021/04/07 05:51:33;;;;;;;4.47;3.78;;;0.90;99.90;;;;;;4178223;28;20029;-78
2021/04/07 05:53:35;;;;;;;5.95;3.17;;;0.90;99.90;;;;;;4178122;28;20057;-79
2021/04/07 05:55:36;;;;;;;5.32;2.90;;;0.90;99.90;;;;;;4177256;28;20036;-78
2021/04/07 05:57:37;;;;;;;3.63;3.22;;;1.00;99.90;;;;;;4178122;28;20203;-79
2021/04/07 05:59:38;;;;;;;5.78;3.70;;;1.00;99.90;;;;;;4175776;28;20048;-79
2021/04/07 06:01:39;;;;;;;8.13;3.70;;;1.00;99.90;;;;;;4194105;28;20126;-78
2021/04/07 06:03:40;;;;;;;5.53;3.03;;;1.00;99.90;;;;;;4182519;28;20060;-79
2021/04/07 06:05:45;;;;;;;3.80;3.35;;;1.10;99.90;;;;;;4196162;28;20028;-79
2021/04/07 06:07:46;;;;;;;6.70;3.55;;;1.20;99.90;;;;;;4193910;28;20043;-77
2021/04/07 06:09:47;;;;;;;3.75;2.83;;;1.30;99.90;;;;;;4194375;28;20049;-77
2021/04/07 06:11:48;;;;;;;4.30;3.90;;;1.40;99.90;;;;;;4175403;28;20424;-78
2021/04/07 06:13:50;;;;;;;9.05;3.92;;;1.50;99.90;;;;;;4177789;28;20036;-78
2021/04/07 06:15:51;;;;;;;9.63;3.80;;;1.60;99.90;;;;;;4177373;28;20065;-77
2021/04/07 06:17:57;;;;;;;6.72;4.00;;;1.60;99.90;;;;;;4176793;28;20487;-77
2021/04/07 06:19:58;;;;;;;6.72;3.13;;;1.60;99.90;;;;;;4189969;28;20109;-78
2021/04/07 06:21:59;;;;;;;8.02;4.15;;;1.60;99.90;;;;;;4176467;28;20064;-77
2021/04/07 06:24:00;;;;;;;5.38;3.88;;;1.70;99.90;;;;;;4175260;28;20387;-77
2021/04/07 06:26:01;;;;;;;7.88;4.07;;;1.70;99.90;;;;;;4175890;28;20079;-77
2021/04/07 06:28:06;;;;;;;5.95;3.88;;;1.80;99.90;;;;;;4192723;28;20515;-78
2021/04/07 06:30:08;;;;;;;9.05;3.33;;;1.90;99.90;;;;;;4210425;28;20518;-77
2021/04/07 06:32:09;;;;;;;10.30;4.70;;;2.00;99.90;;;;;;4193117;28;20048;-78
2021/04/07 06:34:10;;;;;;;8.02;4.38;;;2.00;99.90;;;;;;4174392;28;20110;-78
2021/04/07 06:36:11;;;;;;;7.22;3.92;;;2.10;99.90;;;;;;4166147;28;20039;-78
2021/04/07 06:38:14;;;;;;;7.95;3.92;;;2.10;99.90;;;;;;4208658;28;20040;-77
2021/04/07 06:40:15;;;;;;;7.97;4.32;;;2.10;99.90;;;;;;4194713;28;20119;-78
2021/04/07 06:42:17;;;;;;;8.70;3.03;;;2.20;99.90;;;;;;4189305;28;20552;-75
2021/04/07 06:44:21;;;;;;;7.05;3.50;;;2.20;99.90;;;;;;4176981;28;20044;-76
2021/04/07 06:46:21;;;;;;;;;;;2.40;99.90;;;;;;4177690;28;20114;-74
2021/04/07 06:48:22;;;;;;;10.68;3.72;;;2.50;99.90;;;;;;4190995;28;19920;-78
2021/04/07 06:50:25;;;;;;;10.05;4.50;;;2.60;99.90;;;;;;4191080;28;20028;-78
2021/04/07 06:52:27;;;;;;;11.05;4.28;;;2.70;99.90;;;;;;4191141;28;20044;-77
2021/04/07 06:54:29;;;;;;;7.30;3.70;;;2.80;99.90;;;;;;4191051;28;20029;-77
2021/04/07 06:56:30;;;;;;;7.45;4.25;;;2.90;99.90;;;;;;4174727;28;20045;-78
2021/04/07 06:58:31;;;;;;;17.63;3.80;;;3.00;99.90;;;;;;4200855;28;20060;-79
2021/04/07 07:00:34;;;;;;;9.13;3.38;;;3.10;99.90;;;;;;4175043;28;20037;-78
2021/04/07 07:02:35;;;;;;;15.25;3.15;;;3.20;99.90;;;;;;4174285;28;20523;-76
2021/04/07 07:04:36;;;;;;;8.77;3.60;;;3.30;99.90;;;;;;4192790;28;20328;-78
2021/04/07 07:06:36;;;;;;;13.10;5.88;;;3.40;99.90;;;;;;4192458;28;20032;-77
2021/04/07 07:08:38;;;;;;;12.45;3.55;;;3.40;99.90;;;;;;4194100;28;20039;-76
2021/04/07 07:10:48;;;;;;;6.65;3.22;;;3.50;99.90;;;;;;4177631;28;20029;-75
2021/04/07 07:12:48;;;;;;;11.77;3.88;;;3.60;99.90;;;;;;4177236;28;20512;-76
2021/04/07 07:14:50;;;;;;;13.50;3.70;;;3.70;99.90;;;;;;4177561;28;20033;-76
2021/04/07 07:16:52;;;;;;;18.45;4.07;;;3.70;99.90;;;;;;4194159;28;20037;-76
2021/04/07 07:18:53;;;;;;;9.80;3.55;;;3.70;99.90;;;;;;4194091;28;20032;-76
2021/04/07 07:20:56;;;;;;;12.60;3.60;;;3.80;99.90;;;;;;4194145;28;20035;-76
2021/04/07 07:22:57;;;;;;;17.75;3.60;;;3.90;99.90;;;;;;4195369;28;20055;-77
2021/04/07 07:25:01;;;;;;;20.50;4.57;;;3.90;99.90;;;;;;4195543;28;20111;-77
2021/04/07 07:27:03;;;;;;;;;;;4.00;99.90;;;;;;4180627;28;20041;-77
2021/04/07 07:29:08;;;;;;;13.23;3.95;;;4.00;99.90;;;;;;4198233;28;20374;-77
2021/04/07 07:31:24;;;;;;;8.98;3.45;;;4.10;99.90;;;;;;4174966;28;20087;-77
2021/04/07 07:33:25;;;;;;;12.57;3.30;;;4.10;99.90;;;;;;4180380;28;20052;-77
2021/04/07 07:35:26;;;;;;;15.35;3.80;;;4.20;99.90;;;;;;4180716;28;20033;-77
2021/04/07 07:37:27;;;;;;;10.93;3.63;;;4.20;99.90;;;;;;4180523;28;20571;-77
2021/04/07 07:39:36;;;;;;;16.90;4.10;;;4.20;99.90;;;;;;4197085;28;20044;-76
2021/04/07 07:41:37;;;;;;;16.67;4.60;;;4.10;99.90;;;;;;4197425;28;20510;-77
2021/04/07 07:43:41;;;;;;;19.80;4.32;;;4.00;99.90;;;;;;4178466;28;20104;-77
2021/04/07 07:45:43;;;;;;;23.55;4.18;;;4.00;99.90;;;;;;4180622;28;20036;-78
2021/04/07 07:47:45;;;;;;;7.05;3.05;;;3.90;99.90;;;;;;4213712;28;20487;-76
2021/04/07 07:50:00;;;;;;;6.97;2.38;;;3.70;99.90;;;;;;4180166;28;20032;-77
2021/04/07 07:52:01;;;;;;;4.20;2.15;;;3.40;99.90;;;;;;4196516;28;20032;-78
2021/04/07 07:54:14;;;;;;;10.70;3.35;;;3.30;99.90;;;;;;4192782;28;20230;-78
2021/04/07 07:56:18;;;;;;;6.35;2.42;;;3.20;99.90;;;;;;4180573;28;20025;-77
2021/04/07 07:58:27;;;;;;;11.15;2.83;;;3.10;99.90;;;;;;4196711;28;20453;-78
2021/04/07 08:00:28;;;;;;;9.05;3.25;;;3.10;99.90;;;;;;4180517;28;20032;-77
2021/04/07 08:02:30;;;;;;;11.68;2.65;;;3.10;99.90;;;;;;4171111;28;20327;-78
2021/04/07 08:04:31;;;;;;;7.50;3.35;;;3.20;99.90;;;;;;4196450;28;20037;-77
2021/04/07 08:06:32;;;;;;;10.68;4.88;;;3.30;99.90;;;;;;4196878;28;20047;-76
2021/04/07 08:08:33;;;;;;;17.23;3.97;;;3.40;99.90;;;;;;4179680;28;20060;-77
2021/04/07 08:10:37;;;;;;;9.30;3.15;;;3.50;99.90;;;;;;4178518;28;20044;-77
2021/04/07 08:12:40;;;;;;;12.93;3.70;;;3.50;99.90;;;;;;4176427;28;20033;-77
2021/04/07 08:14:44;;;;;;;;;;;3.70;99.90;;;;;;4179443;28;20041;-76
2021/04/07 08:16:46;;;;;;;23.23;5.22;;;3.80;99.90;;;;;;4171070;28;20364;-75
2021/04/07 08:18:49;;;;;;;8.10;3.60;;;3.90;99.90;;;;;;4208315;28;20109;-77
2021/04/07 08:20:51;;;;;;;21.17;5.47;;;4.10;99.90;;;;;;4174904;28;20080;-75
2021/04/07 08:22:54;;;;;;;20.08;5.32;;;4.40;99.90;;;;;;4193212;28;20036;-75
2021/04/07 08:24:58;;;;;;;32.20;6.70;;;4.70;99.90;;;;;;4191889;28;20051;-76
2021/04/07 08:27:01;;;;;;;23.75;6.72;;;4.80;99.90;;;;;;4176764;28;20173;-76
2021/04/07 08:29:03;;;;;;;23.92;5.80;;;5.00;99.90;;;;;;4177454;28;20500;-77
2021/04/07 08:31:04;;;;;;;26.23;6.93;;;5.00;99.90;;;;;;4179159;28;20033;-76
2021/04/07 08:33:05;;;;;;;27.40;6.53;;;4.90;99.90;;;;;;4175894;28;20495;-75
2021/04/07 08:35:09;;;;;;;30.67;5.85;;;5.00;99.90;;;;;;4211222;28;20044;-76
2021/04/07 08:37:12;;;;;;;30.60;7.10;;;5.10;99.90;;;;;;4194235;28;20475;-75
2021/04/07 08:39:18;;;;;;;30.65;6.43;;;5.40;99.90;;;;;;4177557;28;20044;-76
2021/04/07 08:41:23;;;;;;;24.85;7.43;;;5.70;99.90;;;;;;4177180;28;20034;-76
2021/04/07 08:43:28;;;;;;;27.23;6.25;;;6.00;99.90;;;;;;4192134;28;20032;-77
2021/04/07 08:45:46;;;;;;;26.92;7.40;;;6.30;99.90;;;;;;4194170;28;20503;-77
2021/04/07 08:47:56;;;;;;;42.80;7.00;;;6.40;99.90;;;;;;4183960;28;20124;-77
2021/04/07 08:50:07;;;;;;;26.40;6.38;;;6.60;99.90;;;;;;4190995;28;20032;-76
2021/04/07 08:52:24;;;;;;;15.02;4.90;;;6.70;99.90;;;;;;4176743;28;20462;-76
2021/04/07 08:54:25;;;;;;;18.77;8.80;;;6.80;99.90;;;;;;4210831;28;20548;-76
2021/04/07 08:56:29;;;;;;;29.73;6.50;;;6.80;99.90;;;;;;4177815;28;20040;-77
2021/04/07 08:58:30;;;;;;;24.08;6.68;;;6.70;99.90;;;;;;4177912;28;20036;-77
2021/04/07 09:00:35;;;;;;;21.13;5.68;;;6.40;99.90;;;;;;4195374;28;20033;-77
2021/04/07 09:02:57;;;;;;;21.35;7.15;;;6.10;99.90;;;;;;4172927;28;20389;-77
2021/04/07 09:05:07;;;;;;;26.17;5.97;;;6.00;99.90;;;;;;4185031;28;20036;-77
2021/04/07 09:07:12;;;;;;;13.57;4.35;;;5.90;99.90;;;;;;4178847;28;20080;-78
2021/04/07 09:09:22;;;;;;;10.40;4.40;;;5.60;99.90;;;;;;4182119;28;20427;-78
2021/04/07 09:11:32;;;;;;;9.27;4.95;;;5.30;99.90;;;;;;4186123;28;20151;-78
2021/04/07 09:13:35;;;;;;;17.42;4.25;;;4.90;99.90;;;;;;4195594;28;20641;-78
2021/04/07 09:15:50;;;;;;;14.13;4.90;;;4.50;99.90;;;;;;4196514;28;20040;-77
2021/04/07 09:17:56;;;;;;;12.55;5.00;;;4.40;99.90;;;;;;4194900;28;20035;-78
2021/04/07 09:19:57;;;;;;;13.35;4.68;;;4.30;99.90;;;;;;4194061;28;20121;-78
2021/04/07 09:22:05;;;;;;;18.40;5.20;;;4.40;99.90;;;;;;4176406;28;20454;-77
2021/04/07 09:24:19;;;;;;;24.70;4.60;;;4.70;99.90;;;;;;4194392;28;20028;-79
2021/04/07 09:26:24;;;;;;;25.10;5.30;;;5.00;99.90;;;;;;4175814;28;20492;-77
2021/04/07 09:28:35;;;;;;;24.10;5.75;;;5.30;99.90;;;;;;4194891;28;20112;-78
2021/04/07 09:30:47;;;;;;;25.65;7.40;;;5.60;99.90;;;;;;4194825;28;20028;-77
2021/04/07 09:32:47;;;;;;;22.75;6.25;;;5.70;99.90;;;;;;4194858;28;20468;-77
2021/04/07 09:34:48;;;;;;;21.10;5.80;;;5.90;99.90;;;;;;4178467;28;20055;-78
2021/04/07 09:36:50;;;;;;;23.85;6.93;;;6.10;99.90;;;;;;4178077;28;20129;-77
2021/04/07 09:38:53;;;;;;;19.83;4.60;;;6.40;99.90;;;;;;4194632;28;20465;-78
2021/04/07 09:41:14;;;;;;;24.48;5.95;;;6.90;99.90;;;;;;4177663;28;20471;-78
2021/04/07 09:43:21;;;;;;;17.27;6.13;;;7.60;99.90;;;;;;4206809;28;20017;-78
2021/04/07 09:45:24;;;;;;;18.40;5.65;;;8.00;99.90;;;;;;4179114;28;20036;-78
2021/04/07 09:47:28;;;;;;;23.80;7.43;;;7.90;99.90;;;;;;4177462;28;20037;-78
2021/04/07 09:49:32;;;;;;;16.85;4.65;;;7.70;99.90;;;;;;4211680;28;20056;-76
2021/04/07 09:51:45;;;;;;;23.55;7.53;;;7.50;99.90;;;;;;4178298;28;20146;-76
2021/04/07 09:53:46;;;;;;;15.68;6.18;;;7.40;99.90;;;;;;4194805;28;20448;-76
2021/04/07 09:55:49;;;;;;;21.65;5.43;;;7.60;99.90;;;;;;4178269;28;20025;-76
2021/04/07 09:58:02;;;;;;;17.27;6.80;;;7.80;99.90;;;;;;4195511;28;20032;-76
2021/04/07 10:00:09;;;;;;;23.33;5.18;;;7.90;99.90;;;;;;4194218;28;20044;-78
2021/04/07 10:02:22;;;;;;;28.42;6.07;;;8.00;99.90;;;;;;4194773;28;20123;-78
2021/04/07 10:04:31;;;;;;;18.00;4.63;;;8.00;99.90;;;;;;4194991;28;20052;-77
2021/04/07 10:06:32;;;;;;;26.35;6.72;;;8.20;99.90;;;;;;4172454;28;20423;-76
2021/04/07 10:08:33;;;;;;;16.60;5.05;;;8.10;99.90;;;;;;4174063;28;20033;-75
2021/04/07 10:10:34;;;;;;;20.63;5.78;;;8.00;99.90;;;;;;4203815;28;20028;-76
2021/04/07 10:12:35;;;;;;;14.38;3.90;;;7.70;99.90;;;;;;4194448;28;20025;-77
2021/04/07 10:14:36;;;;;;;14.25;4.25;;;7.20;99.90;;;;;;4177694;28;20033;-77
2021/04/07 10:16:39;;;;;;;15.23;4.50;;;6.30;99.90;;;;;;4170974;28;20404;-77
2021/04/07 10:18:43;;;;;;;18.08;4.78;;;5.60;99.90;;;;;;4194995;28;20070;-77
2021/04/07 10:20:44;;;;;;;24.33;5.55;;;5.40;99.90;;;;;;4178101;28;20041;-77
2021/04/07 10:22:49;;;;;;;18.98;5.05;;;5.30;99.90;;;;;;4195872;28;20039;-78
2021/04/07 10:24:57;;;;;;;21.00;5.35;;;5.30;99.90;;;;;;4195344;28;20477;-75
2021/04/07 10:26:57;;;;;;;16.15;4.28;;;5.50;99.90;;;;;;4194148;28;20486;-75
2021/04/07 10:29:01;;;;;;;16.08;5.53;;;5.70;99.90;;;;;;4177765;28;20056;-75
2021/04/07 10:31:11;;;;;;;12.13;4.45;;;5.70;99.90;;;;;;4210877;28;20036;-77
2021/04/07 10:33:12;;;;;;;10.63;4.13;;;5.70;99.90;;;;;;4177618;28;20545;-76
2021/04/07 10:35:27;;;;;;;19.10;4.80;;;5.40;99.90;;;;;;4201448;28;20044;-75
2021/04/07 10:37:28;;;;;;;15.30;4.97;;;5.20;99.90;;;;;;4176803;28;20037;-75
2021/04/07 10:39:43;;;;;;;15.65;5.03;;;5.00;99.90;;;;;;4210853;28;20333;-75
2021/04/07 10:41:47;;;;;;;20.77;4.95;;;4.90;99.90;;;;;;4194569;28;20352;-76
2021/04/07 10:43:48;;;;;;;23.23;5.22;;;4.90;99.90;;;;;;4193906;28;20043;-75